createdAt,value
2017-06-04T00:00:40.561Z,91.60
2017-06-04T00:03:09.373Z,91.40
2017-06-04T00:05:39.062Z,91.50
2017-06-04T00:08:07.837Z,91.50
2017-06-04T00:10:36.649Z,91.60
2017-06-04T00:13:04.653Z,91.60
2017-06-04T00:15:33.421Z,91.00
2017-06-04T00:18:02.201Z,91.30
2017-06-04T00:20:30.973Z,91.70
2017-06-04T00:22:59.737Z,90.80
2017-06-04T00:25:28.550Z,91.10
2017-06-04T00:27:57.333Z,91.90
2017-06-04T00:30:26.102Z,91.90
2017-06-04T00:32:54.882Z,91.90
2017-06-04T00:35:23.649Z,91.90
2017-06-04T00:37:53.332Z,91.60
2017-06-04T00:40:22.105Z,91.30
2017-06-04T00:42:50.865Z,91.80
2017-06-04T00:45:19.633Z,91.10
2017-06-04T00:47:48.417Z,91.30
2017-06-04T00:50:17.193Z,91.10
2017-06-04T00:52:45.961Z,91.50
2017-06-04T00:55:14.749Z,92.90
2017-06-04T00:57:44.513Z,94.80
2017-06-04T01:00:13.297Z,94.90
2017-06-04T01:02:42.089Z,95.20
2017-06-04T01:05:10.853Z,95.00
2017-06-04T01:07:39.625Z,95.00
2017-06-04T01:10:08.429Z,95.10
2017-06-04T01:12:37.204Z,95.40
2017-06-04T01:15:05.984Z,94.80
2017-06-04T01:17:34.786Z,94.80
2017-06-04T01:20:03.549Z,94.40
2017-06-04T01:22:32.333Z,94.50
2017-06-04T01:25:01.120Z,94.60
2017-06-04T01:27:29.889Z,94.60
2017-06-04T01:29:58.664Z,94.70
2017-06-04T01:32:26.697Z,94.70
2017-06-04T01:34:55.472Z,94.90
2017-06-04T01:37:24.241Z,95.00
2017-06-04T01:39:53.032Z,94.60
2017-06-04T01:42:21.813Z,94.60
2017-06-04T01:44:50.572Z,94.10
2017-06-04T01:47:19.372Z,94.50
2017-06-04T01:49:48.156Z,94.40
2017-06-04T01:52:16.920Z,94.20
2017-06-04T01:54:45.725Z,94.00
2017-06-04T01:57:14.504Z,93.30
2017-06-04T01:59:43.272Z,93.90
2017-06-04T02:02:11.308Z,93.80
2017-06-04T02:04:40.076Z,93.50
2017-06-04T02:07:08.844Z,93.20
2017-06-04T02:09:37.636Z,92.90
2017-06-04T02:12:06.412Z,93.40
2017-06-04T02:14:37.124Z,92.40
2017-06-04T02:17:05.916Z,93.20
2017-06-04T02:19:34.708Z,93.30
2017-06-04T02:22:03.451Z,93.70
2017-06-04T02:24:32.216Z,93.40
2017-06-04T02:27:00.988Z,93.60
2017-06-04T02:29:29.796Z,94.30
2017-06-04T02:31:58.573Z,94.00
2017-06-04T02:34:27.360Z,94.00
2017-06-04T02:36:57.044Z,93.90
2017-06-04T02:39:25.820Z,94.00
2017-06-04T02:41:54.592Z,94.10
2017-06-04T02:44:23.367Z,94.10
2017-06-04T02:46:55.880Z,94.30
2017-06-04T02:49:24.672Z,94.10
2017-06-04T02:51:53.432Z,93.60
2017-06-04T02:54:23.154Z,93.60
2017-06-04T02:56:52.691Z,93.60
2017-06-04T02:59:21.463Z,93.70
2017-06-04T03:01:50.283Z,93.30
2017-06-04T03:04:19.175Z,93.60
2017-06-04T03:06:47.952Z,93.60
2017-06-04T03:09:16.748Z,93.90
2017-06-04T03:11:45.648Z,94.10
2017-06-04T03:14:14.429Z,93.40
2017-06-04T03:16:43.232Z,93.70
2017-06-04T03:19:12.047Z,93.20
2017-06-04T03:21:40.812Z,93.50
2017-06-04T03:24:09.667Z,93.70
2017-06-04T03:26:38.467Z,94.00
2017-06-04T03:29:07.235Z,93.60
2017-06-04T03:31:36.053Z,93.50
2017-06-04T03:34:04.843Z,93.10
2017-06-04T03:36:33.611Z,93.60
2017-06-04T03:39:02.379Z,94.00
2017-06-04T03:41:31.155Z,93.90
2017-06-04T03:43:59.975Z,94.30
2017-06-04T03:46:28.975Z,94.60
2017-06-04T03:48:57.867Z,94.80
2017-06-04T03:51:26.639Z,95.40
2017-06-04T03:53:55.435Z,94.90
2017-06-04T03:56:24.323Z,95.30
2017-06-04T03:58:53.107Z,95.00
2017-06-04T04:01:21.899Z,94.80
2017-06-04T04:03:50.699Z,94.90
2017-06-04T04:06:19.470Z,94.90
2017-06-04T04:08:48.239Z,95.00
2017-06-04T04:11:17.043Z,95.30
2017-06-04T04:13:45.842Z,94.80
2017-06-04T04:16:14.614Z,95.10
2017-06-04T04:18:43.431Z,95.10
2017-06-04T04:21:12.199Z,94.90
2017-06-04T04:23:40.978Z,94.50
2017-06-04T04:26:09.786Z,95.10
2017-06-04T04:28:38.554Z,94.80
2017-06-04T04:31:07.327Z,94.70
2017-06-04T04:33:36.238Z,94.50
2017-06-04T04:36:05.074Z,94.80
2017-06-04T04:38:33.846Z,95.00
2017-06-04T04:41:02.662Z,95.10
2017-06-04T04:43:31.502Z,95.30
2017-06-04T04:46:00.398Z,95.40
2017-06-04T04:48:29.182Z,95.50
2017-06-04T04:50:57.966Z,95.30
2017-06-04T04:53:26.738Z,95.40
2017-06-04T04:55:55.539Z,95.20
2017-06-04T04:58:24.314Z,95.30
2017-06-04T05:00:53.110Z,95.40
2017-06-04T05:03:21.998Z,95.60
2017-06-04T05:05:50.786Z,95.70
2017-06-04T05:08:19.568Z,95.70
2017-06-04T05:10:48.470Z,95.80
2017-06-04T05:13:17.386Z,95.70
2017-06-04T05:15:46.134Z,96.00
2017-06-04T05:18:14.925Z,95.70
2017-06-04T05:20:49.510Z,95.80
2017-06-04T05:23:18.313Z,95.60
2017-06-04T05:25:47.081Z,95.70
2017-06-04T05:28:15.849Z,95.00
2017-06-04T05:30:44.742Z,95.20
2017-06-04T05:33:13.509Z,95.10
2017-06-04T05:35:42.277Z,95.40
2017-06-04T05:38:11.069Z,95.40
2017-06-04T05:40:39.834Z,95.00
2017-06-04T05:43:08.598Z,95.20
2017-06-04T05:45:37.433Z,94.20
2017-06-04T05:48:06.219Z,94.80
2017-06-04T05:50:35.009Z,94.60
2017-06-04T05:53:04.729Z,94.40
2017-06-04T05:55:33.502Z,95.20
2017-06-04T05:58:02.303Z,95.50
2017-06-04T06:00:31.082Z,95.20
2017-06-04T06:02:59.857Z,95.20
2017-06-04T06:05:28.654Z,95.20
2017-06-04T06:07:57.445Z,94.60
2017-06-04T06:10:26.217Z,94.30
2017-06-04T06:12:55.021Z,94.50
2017-06-04T06:15:23.798Z,94.60
2017-06-04T06:17:52.557Z,94.50
2017-06-04T06:20:21.389Z,94.10
2017-06-04T06:22:50.173Z,93.40
2017-06-04T06:25:18.966Z,93.90
2017-06-04T06:27:47.713Z,93.10
2017-06-04T06:30:16.509Z,93.90
2017-06-04T06:32:45.271Z,93.60
2017-06-04T06:35:14.041Z,93.00
2017-06-04T06:37:42.829Z,93.30
2017-06-04T06:40:11.605Z,93.30
2017-06-04T06:42:40.377Z,93.40
2017-06-04T06:45:09.149Z,93.50
2017-06-04T06:47:37.921Z,93.20
2017-06-04T06:50:06.693Z,93.30
2017-06-04T06:52:35.472Z,92.40
2017-06-04T06:55:04.244Z,93.90
2017-06-04T06:57:33.013Z,94.80
2017-06-04T07:00:01.797Z,95.60
2017-06-04T07:02:30.564Z,95.00
2017-06-04T07:04:59.337Z,95.70
2017-06-04T07:07:28.109Z,95.80
2017-06-04T07:09:56.872Z,95.20
2017-06-04T07:12:25.636Z,95.20
2017-06-04T07:14:54.408Z,94.90
2017-06-04T07:17:23.176Z,94.70
2017-06-04T07:19:51.940Z,95.10
2017-06-04T07:22:20.716Z,95.00
2017-06-04T07:24:49.492Z,95.20
2017-06-04T07:27:18.260Z,95.30
2017-06-04T07:29:47.056Z,95.30
2017-06-04T07:32:15.828Z,94.80
2017-06-04T07:34:44.600Z,94.90
2017-06-04T07:37:13.432Z,94.60
2017-06-04T07:39:42.200Z,94.60
2017-06-04T07:42:10.972Z,94.60
2017-06-04T07:44:39.756Z,94.60
2017-06-04T07:47:08.520Z,95.10
2017-06-04T07:49:37.284Z,94.90
2017-06-04T07:52:06.101Z,94.50
2017-06-04T07:54:34.836Z,94.30
2017-06-04T07:57:03.604Z,94.20
2017-06-04T07:59:32.571Z,93.90
2017-06-04T08:02:01.456Z,93.60
2017-06-04T08:04:30.184Z,93.30
2017-06-04T08:06:58.975Z,93.80
2017-06-04T08:09:27.751Z,93.40
2017-06-04T08:11:56.524Z,93.80
2017-06-04T08:14:25.300Z,93.60
2017-06-04T08:16:54.073Z,93.80
2017-06-04T08:19:22.839Z,93.70
2017-06-04T08:21:51.635Z,94.00
2017-06-04T08:24:20.404Z,93.70
2017-06-04T08:26:49.167Z,93.10
2017-06-04T08:29:17.944Z,93.30
2017-06-04T08:31:46.716Z,92.70
2017-06-04T08:34:15.487Z,92.60
2017-06-04T08:36:44.263Z,92.30
2017-06-04T08:39:13.031Z,91.70
2017-06-04T08:41:41.864Z,92.60
2017-06-04T08:44:10.655Z,92.00
2017-06-04T08:46:39.427Z,91.40
2017-06-04T08:49:08.195Z,91.70
2017-06-04T08:51:36.991Z,91.90
2017-06-04T08:54:06.167Z,92.50
2017-06-04T08:56:34.935Z,92.60
2017-06-04T08:59:03.735Z,92.20
2017-06-04T09:01:32.503Z,92.60
2017-06-04T09:04:01.271Z,91.90
2017-06-04T09:06:30.055Z,91.80
2017-06-04T09:08:58.823Z,91.90
2017-06-04T09:11:27.608Z,92.00
2017-06-04T09:13:56.400Z,92.00
2017-06-04T09:16:25.203Z,91.60
2017-06-04T09:18:53.973Z,91.70
2017-06-04T09:21:22.748Z,91.90
2017-06-04T09:23:51.520Z,91.50
2017-06-04T09:26:20.287Z,92.50
2017-06-04T09:28:49.072Z,92.00
2017-06-04T09:31:17.835Z,91.50
2017-06-04T09:33:46.615Z,90.30
2017-06-04T09:36:15.390Z,90.80
2017-06-04T09:38:44.155Z,90.90
2017-06-04T09:41:13.071Z,90.80
2017-06-04T09:43:41.962Z,91.00
2017-06-04T09:46:10.751Z,91.40
2017-06-04T09:48:39.539Z,91.50
2017-06-04T09:51:08.419Z,91.50
2017-06-04T09:53:37.195Z,91.60
2017-06-04T09:56:05.999Z,91.30
2017-06-04T09:58:34.894Z,90.70
2017-06-04T10:01:03.656Z,90.50
2017-06-04T10:03:32.439Z,90.50
2017-06-04T10:06:01.522Z,90.20
2017-06-04T10:08:30.386Z,88.20
2017-06-04T10:10:59.215Z,88.30
2017-06-04T10:13:28.058Z,87.90
2017-06-04T10:15:56.911Z,86.60
2017-06-04T10:18:25.778Z,87.60
2017-06-04T10:20:54.574Z,88.60
2017-06-04T10:23:23.402Z,89.20
2017-06-04T10:25:52.191Z,88.20
2017-06-04T10:28:21.014Z,88.60
2017-06-04T10:30:49.815Z,89.10
2017-06-04T10:33:18.706Z,89.90
2017-06-04T10:35:47.498Z,90.30
2017-06-04T10:38:16.355Z,90.60
2017-06-04T10:40:45.314Z,91.30
2017-06-04T10:43:14.122Z,91.30
2017-06-04T10:45:42.919Z,91.70
2017-06-04T10:48:11.702Z,91.90
2017-06-04T10:50:40.506Z,92.10
2017-06-04T10:53:09.294Z,91.70
2017-06-04T10:55:38.058Z,92.20
2017-06-04T10:58:06.910Z,91.70
2017-06-04T11:00:35.690Z,92.00
2017-06-04T11:03:04.486Z,91.80
2017-06-04T11:05:33.325Z,91.90
2017-06-04T11:08:02.094Z,91.80
2017-06-04T11:10:30.882Z,91.50
2017-06-04T11:12:59.658Z,91.50
2017-06-04T11:15:28.466Z,91.10
2017-06-04T11:17:57.248Z,90.80
2017-06-04T11:20:26.023Z,91.60
2017-06-04T11:22:55.161Z,89.10
2017-06-04T11:25:23.974Z,89.50
2017-06-04T11:27:52.798Z,86.70
2017-06-04T11:30:21.626Z,86.90
2017-06-04T11:32:50.449Z,82.30
2017-06-04T11:35:19.261Z,84.80
2017-06-04T11:37:48.057Z,84.50
2017-06-04T11:40:16.813Z,82.10
2017-06-04T11:42:45.618Z,82.00
2017-06-04T11:45:14.501Z,83.90
2017-06-04T11:47:43.413Z,81.70
2017-06-04T11:50:12.502Z,80.10
2017-06-04T11:52:41.459Z,79.50
2017-06-04T11:55:10.413Z,78.80
2017-06-04T11:57:39.281Z,78.20
2017-06-04T12:00:08.090Z,76.20
2017-06-04T12:02:36.870Z,77.10
2017-06-04T12:05:05.673Z,78.20
2017-06-04T12:07:34.453Z,75.50
2017-06-04T12:10:03.293Z,77.20
2017-06-04T12:12:32.177Z,78.30
2017-06-04T12:15:00.896Z,77.80
2017-06-04T12:17:29.701Z,77.80
2017-06-04T12:19:58.481Z,77.60
2017-06-04T12:22:27.381Z,78.30
2017-06-04T12:24:56.217Z,78.20
2017-06-04T12:27:25.057Z,77.70
2017-06-04T12:29:53.856Z,79.00
2017-06-04T12:32:22.889Z,80.00
2017-06-04T12:34:51.733Z,81.40
2017-06-04T12:37:20.572Z,81.00
2017-06-04T12:39:49.437Z,81.10
2017-06-04T12:42:18.400Z,80.80
2017-06-04T12:44:47.337Z,80.30
2017-06-04T12:47:16.221Z,79.40
2017-06-04T12:49:44.996Z,75.90
2017-06-04T12:52:13.781Z,73.80
2017-06-04T12:54:42.548Z,70.90
2017-06-04T12:57:11.416Z,71.30
2017-06-04T12:59:40.300Z,71.90
2017-06-04T13:02:09.264Z,71.30
2017-06-04T13:04:38.176Z,74.30
2017-06-04T13:07:06.976Z,70.90
2017-06-04T13:09:36.605Z,70.30
2017-06-04T13:12:05.408Z,70.00
2017-06-04T13:14:34.178Z,70.70
2017-06-04T13:17:02.933Z,71.60
2017-06-04T13:19:31.716Z,70.90
2017-06-04T13:22:00.508Z,70.20
2017-06-04T13:24:29.288Z,67.40
2017-06-04T13:26:58.064Z,66.00
2017-06-04T13:29:26.845Z,64.00
2017-06-04T13:31:55.692Z,64.70
2017-06-04T13:34:24.743Z,65.10
2017-06-04T13:36:53.596Z,65.60
2017-06-04T13:39:22.376Z,64.80
2017-06-04T13:41:52.104Z,63.10
2017-06-04T13:44:20.900Z,62.20
2017-06-04T13:46:49.668Z,60.90
2017-06-04T13:49:18.448Z,61.10
2017-06-04T13:51:47.368Z,60.10
2017-06-04T13:54:16.131Z,60.60
2017-06-04T13:56:44.912Z,61.40
2017-06-04T13:59:13.695Z,62.50
2017-06-04T14:01:42.547Z,61.90
2017-06-04T14:04:11.356Z,62.50
2017-06-04T14:06:40.139Z,61.10
2017-06-04T14:09:08.918Z,62.80
2017-06-04T14:11:37.720Z,59.00
2017-06-04T14:14:06.495Z,59.00
2017-06-04T14:16:35.268Z,60.60
2017-06-04T14:19:04.041Z,60.00
2017-06-04T14:21:32.823Z,58.80
2017-06-04T14:24:01.624Z,58.90
2017-06-04T14:26:30.436Z,58.70
2017-06-04T14:28:59.204Z,57.50
2017-06-04T14:31:27.968Z,57.30
2017-06-04T14:33:57.175Z,57.70
2017-06-04T14:36:25.924Z,57.20
2017-06-04T14:38:54.687Z,56.20
2017-06-04T14:41:23.552Z,56.80
2017-06-04T14:43:52.319Z,57.60
2017-06-04T14:46:21.083Z,57.10
2017-06-04T14:48:49.871Z,56.50
2017-06-04T14:51:18.755Z,56.50
2017-06-04T14:53:47.691Z,56.80
2017-06-04T14:56:16.455Z,57.10
2017-06-04T14:58:45.295Z,57.40
2017-06-04T15:01:14.091Z,57.70
2017-06-04T15:03:42.915Z,56.40
2017-06-04T15:06:11.735Z,56.10
2017-06-04T15:08:40.552Z,56.80
2017-06-04T15:11:09.379Z,56.10
2017-06-04T15:13:38.315Z,55.10
2017-06-04T15:16:07.091Z,55.40
2017-06-04T15:18:35.887Z,55.10
2017-06-04T15:21:04.671Z,54.80
2017-06-04T15:23:33.435Z,54.20
2017-06-04T15:26:02.219Z,53.60
2017-06-04T15:28:31.030Z,54.70
2017-06-04T15:30:59.802Z,53.50
2017-06-04T15:33:28.670Z,52.80
2017-06-04T15:35:57.475Z,52.60
2017-06-04T15:38:26.215Z,53.30
2017-06-04T15:40:54.995Z,53.70
2017-06-04T15:43:23.807Z,53.20
2017-06-04T15:45:52.680Z,52.90
2017-06-04T15:48:21.486Z,53.00
2017-06-04T15:50:50.383Z,52.80
2017-06-04T15:53:19.178Z,52.40
2017-06-04T15:55:48.005Z,53.10
2017-06-04T15:58:16.870Z,52.80
2017-06-04T16:00:45.654Z,51.60
2017-06-04T16:03:14.442Z,53.00
2017-06-04T16:05:43.202Z,53.10
2017-06-04T16:08:12.056Z,52.40
2017-06-04T16:10:40.879Z,51.50
2017-06-04T16:13:09.635Z,52.10
2017-06-04T16:15:38.402Z,51.80
2017-06-04T16:18:07.186Z,51.60
2017-06-04T16:20:35.961Z,51.00
2017-06-04T16:23:04.758Z,51.00
2017-06-04T16:25:33.666Z,50.80
2017-06-04T16:28:02.454Z,52.50
2017-06-04T16:30:31.206Z,51.40
2017-06-04T16:33:00.154Z,50.70
2017-06-04T16:35:28.938Z,50.90
2017-06-04T16:37:57.746Z,50.60
2017-06-04T16:40:26.562Z,50.30
2017-06-04T16:42:55.378Z,50.80
2017-06-04T16:45:24.174Z,50.40
2017-06-04T16:47:53.586Z,51.30
2017-06-04T16:50:22.529Z,51.80
2017-06-04T16:52:51.378Z,51.40
2017-06-04T16:55:20.198Z,51.20
2017-06-04T16:57:49.126Z,50.80
2017-06-04T17:00:17.894Z,52.10
2017-06-04T17:02:46.709Z,51.30
2017-06-04T17:05:15.538Z,51.10
2017-06-04T17:07:44.318Z,51.50
2017-06-04T17:10:13.181Z,50.70
2017-06-04T17:12:41.973Z,51.60
2017-06-04T17:15:10.754Z,52.50
2017-06-04T17:17:39.590Z,52.50
2017-06-04T17:20:08.358Z,53.10
2017-06-04T17:22:37.186Z,52.70
2017-06-04T17:25:05.974Z,53.40
2017-06-04T17:27:34.782Z,51.90
2017-06-04T17:30:03.749Z,52.10
2017-06-04T17:32:32.618Z,51.90
2017-06-04T17:35:01.433Z,52.30
2017-06-04T17:37:30.294Z,52.50
2017-06-04T17:39:59.210Z,52.90
2017-06-04T17:42:28.013Z,52.90
2017-06-04T17:44:56.901Z,53.20
2017-06-04T17:47:25.678Z,53.70
2017-06-04T17:49:54.497Z,53.60
2017-06-04T17:52:23.341Z,53.90
2017-06-04T17:54:52.379Z,53.80
2017-06-04T17:57:21.181Z,53.70
2017-06-04T17:59:49.966Z,54.20
2017-06-04T18:02:18.778Z,54.70
2017-06-04T18:04:47.661Z,55.30
2017-06-04T18:07:16.436Z,55.50
2017-06-04T18:09:45.216Z,55.60
2017-06-04T18:12:13.980Z,56.30
2017-06-04T18:14:43.205Z,55.90
2017-06-04T18:17:12.044Z,55.80
2017-06-04T18:19:40.864Z,56.40
2017-06-04T18:22:09.648Z,56.80
2017-06-04T18:24:38.508Z,57.80
2017-06-04T18:27:09.184Z,58.30
2017-06-04T18:29:37.955Z,59.00
2017-06-04T18:32:06.873Z,59.10
2017-06-04T18:34:35.784Z,59.70
2017-06-04T18:37:04.649Z,59.90
2017-06-04T18:39:34.512Z,61.00
2017-06-04T18:42:03.272Z,59.60
2017-06-04T18:44:32.233Z,59.80
2017-06-04T18:47:01.012Z,59.80
2017-06-04T18:49:29.885Z,59.60
2017-06-04T18:51:58.657Z,59.70
2017-06-04T18:54:27.467Z,60.40
2017-06-04T18:56:56.245Z,60.20
2017-06-04T18:59:25.077Z,60.40
2017-06-04T19:01:53.871Z,60.70
2017-06-04T19:04:22.680Z,61.10
2017-06-04T19:06:51.604Z,62.30
2017-06-04T19:09:20.453Z,64.60
2017-06-04T19:11:49.228Z,65.40
2017-06-04T19:14:18.009Z,65.90
2017-06-04T19:16:46.780Z,65.90
2017-06-04T19:19:16.492Z,65.30
2017-06-04T19:21:45.340Z,64.60
2017-06-04T19:24:14.128Z,65.20
2017-06-04T19:26:42.943Z,66.60
2017-06-04T19:29:11.748Z,67.80
2017-06-04T19:31:40.528Z,69.10
2017-06-04T19:34:09.412Z,72.30
2017-06-04T19:36:38.200Z,74.40
2017-06-04T19:39:06.984Z,73.20
2017-06-04T19:41:35.800Z,73.80
2017-06-04T19:44:04.595Z,75.30
2017-06-04T19:46:37.115Z,76.20
2017-06-04T19:49:09.084Z,77.90
2017-06-04T19:51:37.843Z,80.40
2017-06-04T19:54:06.664Z,81.30
2017-06-04T19:56:35.507Z,79.40
2017-06-04T19:59:04.288Z,79.30
2017-06-04T20:01:33.063Z,78.40
2017-06-04T20:04:01.844Z,77.90
2017-06-04T20:06:30.619Z,76.10
2017-06-04T20:08:59.387Z,77.40
2017-06-04T20:11:28.163Z,78.20
2017-06-04T20:13:56.939Z,77.90
2017-06-04T20:16:25.715Z,78.00
2017-06-04T20:18:54.515Z,78.80
2017-06-04T20:21:23.283Z,80.20
2017-06-04T20:23:52.055Z,81.60
2017-06-04T20:26:20.835Z,83.80
2017-06-04T20:28:49.607Z,83.80
2017-06-04T20:31:18.379Z,83.10
2017-06-04T20:33:47.167Z,82.70
2017-06-04T20:36:15.940Z,84.40
2017-06-04T20:38:44.712Z,83.60
2017-06-04T20:41:13.491Z,81.70
2017-06-04T20:43:42.295Z,82.00
2017-06-04T20:46:11.079Z,82.10
2017-06-04T20:48:40.868Z,80.50
2017-06-04T20:51:09.630Z,80.10
2017-06-04T20:53:38.417Z,79.40
2017-06-04T20:56:08.139Z,79.60
2017-06-04T20:58:36.968Z,79.90
2017-06-04T21:01:05.723Z,79.30
2017-06-04T21:03:35.431Z,79.90
2017-06-04T21:06:04.261Z,79.60
2017-06-04T21:08:34.014Z,81.30
2017-06-04T21:11:02.790Z,80.90
2017-06-04T21:13:32.508Z,81.10
2017-06-04T21:16:01.276Z,80.60
2017-06-04T21:18:30.047Z,81.00
2017-06-04T21:20:58.827Z,80.90
2017-06-04T21:23:27.615Z,81.90
2017-06-04T21:25:57.378Z,81.90
2017-06-04T21:28:26.152Z,81.10
2017-06-04T21:30:54.930Z,82.50
2017-06-04T21:33:23.831Z,82.60
2017-06-04T21:35:52.747Z,81.60
2017-06-04T21:38:21.514Z,81.20
2017-06-04T21:40:50.279Z,81.50
2017-06-04T21:43:19.091Z,81.80
2017-06-04T21:45:49.846Z,81.60
2017-06-04T21:48:18.622Z,81.70
2017-06-04T21:50:47.390Z,81.20
2017-06-04T21:53:16.191Z,80.90
2017-06-04T21:55:44.966Z,80.80
2017-06-04T21:58:13.743Z,82.20
2017-06-04T22:00:42.538Z,83.00
2017-06-04T22:03:11.317Z,83.50
2017-06-04T22:05:40.083Z,83.70
2017-06-04T22:08:08.886Z,83.50
2017-06-04T22:10:37.658Z,83.50
2017-06-04T22:13:06.504Z,86.50
2017-06-04T22:15:35.339Z,87.70
2017-06-04T22:18:04.155Z,87.40
2017-06-04T22:20:32.991Z,86.40
2017-06-04T22:23:01.823Z,85.90
2017-06-04T22:25:30.620Z,87.40
2017-06-04T22:27:59.447Z,87.20
2017-06-04T22:30:28.283Z,86.70
2017-06-04T22:32:57.131Z,85.80
2017-06-04T22:35:25.959Z,87.20
2017-06-04T22:37:54.796Z,86.70
2017-06-04T22:40:23.646Z,86.10
2017-06-04T22:42:57.227Z,85.60
2017-06-04T22:45:26.920Z,85.40
2017-06-04T22:47:55.812Z,85.00
2017-06-04T22:50:24.619Z,85.00
2017-06-04T22:52:53.439Z,85.30
2017-06-04T22:55:22.311Z,85.60
2017-06-04T22:57:51.131Z,85.70
2017-06-04T23:00:19.988Z,85.40
2017-06-04T23:02:48.827Z,83.80
2017-06-04T23:05:17.670Z,84.30
2017-06-04T23:07:46.495Z,85.90
2017-06-04T23:10:15.354Z,86.70
2017-06-04T23:12:44.179Z,86.70
2017-06-04T23:15:13.046Z,86.20
2017-06-04T23:17:41.875Z,86.70
2017-06-04T23:20:10.695Z,86.40
2017-06-04T23:22:39.510Z,86.40
2017-06-04T23:25:08.359Z,87.10
2017-06-04T23:27:37.186Z,87.20
2017-06-04T23:30:06.015Z,86.70
2017-06-04T23:32:34.870Z,86.20
2017-06-04T23:35:03.698Z,86.40
2017-06-04T23:37:32.530Z,87.10
2017-06-04T23:40:02.277Z,87.30
2017-06-04T23:42:31.110Z,87.70
2017-06-04T23:44:59.935Z,86.40
2017-06-04T23:47:28.797Z,86.80
2017-06-04T23:49:57.618Z,86.90
2017-06-04T23:52:27.371Z,87.00
2017-06-04T23:54:57.143Z,88.40
2017-06-04T23:57:25.962Z,88.70
2017-06-04T23:59:54.782Z,89.10
